Time;durP1;ratioP1;P1;durP2;ratioP2;P2;SDS_P1;SDS_P2;PMS_P1;PMS_P2;Temp;Humidity;BMP_temperature;BMP_pressure;BME280_temperature;BME280_humidity;BME280_pressure;Samples;Min_cycle;Max_cycle;Signal;HPM_P1;HPM_P2
2023/11/27 00:01:02;;;;;;;;;;;;;;;;;;5094702;28;19953;-75
2023/11/27 00:03:27;;;;;;;;;;;;;;;;;;5094897;28;19993;-75
2023/11/27 00:05:52;;;;;;;;;;;;;;;;;;5095321;28;19909;-75
2023/11/27 00:08:17;;;;;;;;;;;;;;;;;;5095316;28;19915;-75
2023/11/27 00:10:42;;;;;;;;;;;;;;;;;;5095051;28;19908;-75
2023/11/27 00:13:07;;;;;;;;;;;;;;;;;;5095161;28;19916;-75
2023/11/27 00:15:33;;;;;;;;;;;;;;;;;;5095193;28;19912;-75
2023/11/27 00:17:58;;;;;;;;;;;;;;;;;;5095178;28;20296;-75
2023/11/27 00:20:23;;;;;;;;;;;;;;;;;;5094799;28;20007;-75
2023/11/27 00:22:48;;;;;;;;;;;;;;;;;;5094981;28;19991;-75
2023/11/27 00:25:14;;;;;;;;;;;;;;;;;;5094865;28;20019;-75
2023/11/27 00:27:39;;;;;;;;;;;;;;;;;;5095037;28;19908;-75
2023/11/27 00:30:06;;;;;;;;;;;;;;;;;;5094846;28;20288;-75
2023/11/27 00:32:33;;;;;;;;;;;;;;;;;;5093013;28;19998;-75
2023/11/27 00:34:58;;;;;;;;;;;;;;;;;;5094716;28;20003;-75
2023/11/27 00:37:23;;;;;;;;;;;;;;;;;;5094666;28;20005;-75
2023/11/27 00:39:50;;;;;;;;;;;;;;;;;;5093195;28;19912;-75
2023/11/27 00:42:15;;;;;;;;;;;;;;;;;;5094665;28;20375;-75
2023/11/27 00:44:40;;;;;;;;;;;;;;;;;;5094087;28;19981;-75
2023/11/27 00:47:05;;;;;;;;;;;;;;;;;;5094428;28;20493;-75
2023/11/27 00:49:31;;;;;;;;;;;;;;;;;;5094511;28;19908;-75
2023/11/27 00:51:56;;;;;;;;;;;;;;;;;;5093887;28;20447;-75
2023/11/27 00:54:21;;;;;;;;;;;;;;;;;;5094397;28;20327;-75
2023/11/27 00:56:46;;;;;;;;;;;;;;;;;;5094073;28;19908;-75
2023/11/27 00:59:11;;;;;;;;;;;;;;;;;;5092894;28;20011;-75
2023/11/27 01:01:36;;;;;;;;;;;;;;;;;;5094191;28;19908;-75
2023/11/27 01:04:01;;;;;;;;;;;;;;;;;;5092954;28;19908;-75
2023/11/27 01:06:26;;;;;;;;;;;;;;;;;;5094523;28;19912;-75
2023/11/27 01:08:52;;;;;;;;;;;;;;;;;;5088001;28;19914;-75
2023/11/27 01:11:17;;;;;;;;;;;;;;;;;;5091616;28;20397;-75
2023/11/27 01:13:42;;;;;;;;;;;;;;;;;;5093622;28;19927;-75
2023/11/27 01:16:07;;;;;;;;;;;;;;;;;;5094067;28;19912;-75
2023/11/27 01:18:32;;;;;;;;;;;;;;;;;;5093899;28;19912;-75
2023/11/27 01:20:57;;;;;;;;;;;;;;;;;;5093888;28;20280;-75
2023/11/27 01:23:22;;;;;;;;;;;;;;;;;;5093796;28;19908;-75
2023/11/27 01:25:48;;;;;;;;;;;;;;;;;;5092503;28;19908;-75
2023/11/27 01:28:13;;;;;;;;;;;;;;;;;;5092085;28;19951;-75
2023/11/27 01:30:38;;;;;;;;;;;;;;;;;;5093692;28;19966;-75
2023/11/27 01:33:06;;;;;;;;;;;;;;;;;;5093580;28;19908;-75
2023/11/27 01:35:32;;;;;;;;;;;;;;;;;;5093419;28;19923;-75
2023/11/27 01:37:57;;;;;;;;;;;;;;;;;;5093404;28;19908;-75
2023/11/27 01:40:22;;;;;;;;;;;;;;;;;;5093187;28;19919;-75
2023/11/27 01:42:47;;;;;;;;;;;;;;;;;;5093156;28;19923;-75
2023/11/27 01:45:12;;;;;;;;;;;;;;;;;;5092926;28;19908;-75
2023/11/27 01:47:37;;;;;;;;;;;;;;;;;;5092828;28;19915;-75
2023/11/27 01:50:03;;;;;;;;;;;;;;;;;;5092823;28;19915;-75
2023/11/27 01:52:28;;;;;;;;;;;;;;;;;;5092694;28;20466;-75
2023/11/27 01:54:53;;;;;;;;;;;;;;;;;;5093039;28;20277;-75
2023/11/27 01:57:20;;;;;;;;;;;;;;;;;;5092954;28;19908;-75
2023/11/27 01:59:45;;;;;;;;;;;;;;;;;;5092953;28;20013;-75
2023/11/27 02:02:10;;;;;;;;;;;;;;;;;;5084469;28;19958;-75
2023/11/27 02:04:35;;;;;;;;;;;;;;;;;;5092983;28;20002;-75
2023/11/27 02:07:00;;;;;;;;;;;;;;;;;;5092868;28;19908;-75
2023/11/27 02:09:25;;;;;;;;;;;;;;;;;;5092744;28;19912;-75
2023/11/27 02:11:51;;;;;;;;;;;;;;;;;;5092786;28;20018;-75
2023/11/27 02:14:16;;;;;;;;;;;;;;;;;;5092727;28;20003;-75
2023/11/27 02:16:41;;;;;;;;;;;;;;;;;;5092585;28;20013;-75
2023/11/27 02:19:06;;;;;;;;;;;;;;;;;;5092684;28;19912;-75
2023/11/27 02:21:31;;;;;;;;;;;;;;;;;;5092806;28;19954;-75
2023/11/27 02:23:56;;;;;;;;;;;;;;;;;;5091372;28;19908;-76
2023/11/27 02:26:21;;;;;;;;;;;;;;;;;;5090848;28;19908;-75
2023/11/27 02:28:46;;;;;;;;;;;;;;;;;;5092607;28;19912;-75
2023/11/27 02:31:11;;;;;;;;;;;;;;;;;;5092797;28;20045;-75
2023/11/27 02:33:36;;;;;;;;;;;;;;;;;;5092548;28;20048;-75
2023/11/27 02:36:02;;;;;;;;;;;;;;;;;;5092648;28;20385;-75
2023/11/27 02:38:27;;;;;;;;;;;;;;;;;;5092342;28;20368;-75
2023/11/27 02:40:52;;;;;;;;;;;;;;;;;;5092110;28;20398;-75
2023/11/27 02:43:17;;;;;;;;;;;;;;;;;;5092335;28;20434;-75
2023/11/27 02:45:42;;;;;;;;;;;;;;;;;;5092233;28;19948;-76
2023/11/27 02:48:07;;;;;;;;;;;;;;;;;;5091175;28;19916;-75
2023/11/27 02:50:32;;;;;;;;;;;;;;;;;;5083849;28;19912;-75
2023/11/27 02:52:58;;;;;;;;;;;;;;;;;;5092109;28;20388;-75
2023/11/27 02:55:23;;;;;;;;;;;;;;;;;;5091933;28;19909;-75
2023/11/27 02:57:48;;;;;;;;;;;;;;;;;;5092152;28;20007;-75
2023/11/27 03:00:13;;;;;;;;;;;;;;;;;;5091991;28;19916;-75
2023/11/27 03:02:38;;;;;;;;;;;;;;;;;;5091992;28;19915;-75
2023/11/27 03:05:04;;;;;;;;;;;;;;;;;;5090747;28;19951;-75
2023/11/27 03:07:29;;;;;;;;;;;;;;;;;;5091866;28;19912;-75
2023/11/27 03:09:54;;;;;;;;;;;;;;;;;;5090617;28;19908;-75
2023/11/27 03:12:19;;;;;;;;;;;;;;;;;;5092143;28;19908;-75
2023/11/27 03:14:45;;;;;;;;;;;;;;;;;;5091892;28;19908;-75
2023/11/27 03:17:10;;;;;;;;;;;;;;;;;;5091938;28;19908;-75
2023/11/27 03:19:35;;;;;;;;;;;;;;;;;;5091718;28;19919;-75
2023/11/27 03:22:00;;;;;;;;;;;;;;;;;;5090830;28;20281;-75
2023/11/27 03:24:25;;;;;;;;;;;;;;;;;;5091533;28;19912;-75
2023/11/27 03:26:50;;;;;;;;;;;;;;;;;;5091775;28;19954;-75
2023/11/27 03:29:15;;;;;;;;;;;;;;;;;;5091720;28;19916;-75
2023/11/27 03:31:40;;;;;;;;;;;;;;;;;;5082992;28;19918;-75
2023/11/27 03:34:06;;;;;;;;;;;;;;;;;;5091284;28;19919;-75
2023/11/27 03:36:31;;;;;;;;;;;;;;;;;;5089008;28;20388;-75
2023/11/27 03:38:57;;;;;;;;;;;;;;;;;;5091426;28;19935;-75
2023/11/27 03:41:22;;;;;;;;;;;;;;;;;;5089121;28;20262;-75
2023/11/27 03:43:47;;;;;;;;;;;;;;;;;;5085955;28;20396;-75
2023/11/27 03:46:12;;;;;;;;;;;;;;;;;;5086648;28;19908;-75
2023/11/27 03:48:37;;;;;;;;;;;;;;;;;;5091420;28;19912;-75
2023/11/27 03:51:03;;;;;;;;;;;;;;;;;;5091769;28;19911;-75
2023/11/27 03:53:28;;;;;;;;;;;;;;;;;;5085498;28;20383;-75
2023/11/27 03:55:53;;;;;;;;;;;;;;;;;;5091417;28;19908;-75
2023/11/27 03:58:19;;;;;;;;;;;;;;;;;;5091030;28;19908;-76
2023/11/27 04:00:44;;;;;;;;;;;;;;;;;;5090794;28;19912;-75
2023/11/27 04:03:09;;;;;;;;;;;;;;;;;;5087542;28;19999;-75
2023/11/27 04:05:34;;;;;;;;;;;;;;;;;;5090935;28;19912;-75
2023/11/27 04:07:59;;;;;;;;;;;;;;;;;;5093841;28;20289;-75
2023/11/27 04:10:25;;;;;;;;;;;;;;;;;;5095205;28;20368;-75
2023/11/27 04:12:50;;;;;;;;;;;;;;;;;;5094195;28;20384;-75
2023/11/27 04:15:16;;;;;;;;;;;;;;;;;;5095045;28;20390;-75
2023/11/27 04:17:41;;;;;;;;;;;;;;;;;;5093840;28;19955;-75
2023/11/27 04:20:06;;;;;;;;;;;;;;;;;;5094969;28;19912;-75
2023/11/27 04:22:31;;;;;;;;;;;;;;;;;;5095100;28;19915;-75
2023/11/27 04:24:56;;;;;;;;;;;;;;;;;;5094781;28;20378;-75
2023/11/27 04:27:22;;;;;;;;;;;;;;;;;;5093421;28;19908;-76
2023/11/27 04:29:47;;;;;;;;;;;;;;;;;;5095088;28;19908;-75
2023/11/27 04:32:12;;;;;;;;;;;;;;;;;;5094894;28;19938;-75
2023/11/27 04:34:37;;;;;;;;;;;;;;;;;;5094827;28;20011;-75
2023/11/27 04:37:02;;;;;;;;;;;;;;;;;;5094548;28;20093;-76
2023/11/27 04:39:28;;;;;;;;;;;;;;;;;;5091895;28;19951;-75
2023/11/27 04:41:53;;;;;;;;;;;;;;;;;;5089086;28;20280;-75
2023/11/27 04:44:23;;;;;;;;;;;;;;;;;;5094281;28;20003;-75
2023/11/27 04:46:48;;;;;;;;;;;;;;;;;;5094517;28;19908;-75
2023/11/27 04:49:13;;;;;;;;;;;;;;;;;;5094130;28;20002;-75
2023/11/27 04:51:38;;;;;;;;;;;;;;;;;;5094623;28;19909;-75
2023/11/27 04:54:03;;;;;;;;;;;;;;;;;;5094391;28;19961;-75
2023/11/27 04:56:29;;;;;;;;;;;;;;;;;;5094247;28;20343;-76
2023/11/27 04:58:54;;;;;;;;;;;;;;;;;;5093806;28;19920;-75
2023/11/27 05:01:19;;;;;;;;;;;;;;;;;;5094320;28;19908;-75
2023/11/27 05:03:44;;;;;;;;;;;;;;;;;;5093821;28;19908;-75
2023/11/27 05:06:09;;;;;;;;;;;;;;;;;;5094304;28;19962;-75
2023/11/27 05:08:35;;;;;;;;;;;;;;;;;;5092769;28;19908;-76
2023/11/27 05:11:00;;;;;;;;;;;;;;;;;;5094022;28;19953;-75
2023/11/27 05:13:25;;;;;;;;;;;;;;;;;;5094186;28;19961;-75
2023/11/27 05:15:50;;;;;;;;;;;;;;;;;;5094118;28;20416;-75
2023/11/27 05:18:15;;;;;;;;;;;;;;;;;;5093450;28;19908;-75
2023/11/27 05:20:42;;;;;;;;;;;;;;;;;;5093958;28;20373;-75
2023/11/27 05:23:07;;;;;;;;;;;;;;;;;;5093389;28;19965;-75
2023/11/27 05:25:32;;;;;;;;;;;;;;;;;;5092962;28;19912;-75
2023/11/27 05:27:57;;;;;;;;;;;;;;;;;;5093603;28;19957;-76
2023/11/27 05:30:22;;;;;;;;;;;;;;;;;;5093675;28;19908;-76
2023/11/27 05:32:48;;;;;;;;;;;;;;;;;;5093693;28;19908;-75
2023/11/27 05:35:13;;;;;;;;;;;;;;;;;;5083536;28;20053;-76
2023/11/27 05:37:38;;;;;;;;;;;;;;;;;;5093245;28;19977;-75
2023/11/27 05:40:06;;;;;;;;;;;;;;;;;;5093264;28;19912;-75
2023/11/27 05:42:34;;;;;;;;;;;;;;;;;;5092275;28;19915;-76
2023/11/27 05:44:59;;;;;;;;;;;;;;;;;;5093414;28;19916;-75
2023/11/27 05:47:24;;;;;;;;;;;;;;;;;;5092016;28;19909;-75
2023/11/27 05:49:49;;;;;;;;;;;;;;;;;;5093136;28;19908;-76
2023/11/27 05:52:14;;;;;;;;;;;;;;;;;;5093364;28;19912;-75
2023/11/27 05:54:39;;;;;;;;;;;;;;;;;;5092864;28;20598;-75
2023/11/27 05:57:05;;;;;;;;;;;;;;;;;;5091797;28;19908;-75
2023/11/27 05:59:30;;;;;;;;;;;;;;;;;;5092990;28;19963;-75
2023/11/27 06:01:55;;;;;;;;;;;;;;;;;;5093275;28;19908;-76
2023/11/27 06:04:20;;;;;;;;;;;;;;;;;;5092857;28;19912;-76
2023/11/27 06:06:45;;;;;;;;;;;;;;;;;;5092898;28;20396;-76
2023/11/27 06:09:11;;;;;;;;;;;;;;;;;;5092843;28;19908;-75
2023/11/27 06:11:36;;;;;;;;;;;;;;;;;;5093054;28;19909;-76
2023/11/27 06:14:01;;;;;;;;;;;;;;;;;;5092268;28;19915;-75
2023/11/27 06:16:26;;;;;;;;;;;;;;;;;;5092837;28;20124;-76
2023/11/27 06:18:52;;;;;;;;;;;;;;;;;;5091220;28;20387;-75
2023/11/27 06:21:17;;;;;;;;;;;;;;;;;;5092923;28;19912;-75
2023/11/27 06:23:42;;;;;;;;;;;;;;;;;;5092393;28;19908;-75
2023/11/27 06:26:07;;;;;;;;;;;;;;;;;;5092720;28;20441;-76
2023/11/27 06:28:32;;;;;;;;;;;;;;;;;;5092483;28;20268;-75
2023/11/27 06:30:57;;;;;;;;;;;;;;;;;;5092405;28;19909;-76
2023/11/27 06:33:22;;;;;;;;;;;;;;;;;;5090967;28;19961;-76
2023/11/27 06:35:50;;;;;;;;;;;;;;;;;;5091137;28;20003;-75
2023/11/27 06:38:16;;;;;;;;;;;;;;;;;;5091744;28;20000;-75
2023/11/27 06:40:42;;;;;;;;;;;;;;;;;;5092375;28;19916;-76
2023/11/27 06:43:07;;;;;;;;;;;;;;;;;;5092330;28;19919;-76
2023/11/27 06:45:33;;;;;;;;;;;;;;;;;;5092377;28;20293;-76
2023/11/27 06:47:58;;;;;;;;;;;;;;;;;;5092384;28;20385;-76
2023/11/27 06:50:23;;;;;;;;;;;;;;;;;;5092485;28;19916;-76
2023/11/27 06:52:48;;;;;;;;;;;;;;;;;;5092430;28;19915;-76
2023/11/27 06:55:13;;;;;;;;;;;;;;;;;;5090751;28;19908;-75
2023/11/27 06:57:38;;;;;;;;;;;;;;;;;;5092277;28;20299;-75
2023/11/27 07:00:05;;;;;;;;;;;;;;;;;;5092313;28;19924;-77
2023/11/27 07:02:30;;;;;;;;;;;;;;;;;;5095127;28;19908;-77
2023/11/27 07:04:55;;;;;;;;;;;;;;;;;;5095687;28;19918;-78
2023/11/27 07:07:21;;;;;;;;;;;;;;;;;;5092442;28;19909;-77
2023/11/27 07:09:46;;;;;;;;;;;;;;;;;;5092424;28;20336;-77
2023/11/27 07:12:14;;;;;;;;;;;;;;;;;;5091056;28;19908;-77
2023/11/27 07:14:39;;;;;;;;;;;;;;;;;;5090957;28;20289;-77
2023/11/27 07:17:04;;;;;;;;;;;;;;;;;;5090981;28;19908;-77
2023/11/27 07:19:29;;;;;;;;;;;;;;;;;;5092941;28;19923;-77
2023/11/27 07:21:54;;;;;;;;;;;;;;;;;;5091879;28;19908;-77
2023/11/27 07:24:19;;;;;;;;;;;;;;;;;;5092643;28;19912;-77
2023/11/27 07:26:45;;;;;;;;;;;;;;;;;;5093034;28;19993;-77
2023/11/27 07:29:10;;;;;;;;;;;;;;;;;;5091514;28;19998;-77
2023/11/27 07:31:35;;;;;;;;;;;;;;;;;;5092902;28;19908;-77
2023/11/27 07:34:00;;;;;;;;;;;;;;;;;;5091503;28;19911;-77
2023/11/27 07:36:27;;;;;;;;;;;;;;;;;;5093523;28;19962;-78
2023/11/27 07:38:53;;;;;;;;;;;;;;;;;;5091927;28;19908;-78
2023/11/27 07:41:20;;;;;;;;;;;;;;;;;;5096274;28;19912;-77
2023/11/27 07:43:45;;;;;;;;;;;;;;;;;;5096861;28;19961;-77
2023/11/27 07:46:10;;;;;;;;;;;;;;;;;;5096424;28;19912;-77
2023/11/27 07:48:36;;;;;;;;;;;;;;;;;;5089051;28;20319;-77
2023/11/27 07:51:01;;;;;;;;;;;;;;;;;;5094763;28;20488;-77
2023/11/27 07:53:27;;;;;;;;;;;;;;;;;;5095562;28;19908;-77
2023/11/27 07:55:52;;;;;;;;;;;;;;;;;;5096072;28;19908;-77
2023/11/27 07:58:17;;;;;;;;;;;;;;;;;;5096037;28;19912;-78
2023/11/27 08:00:42;;;;;;;;;;;;;;;;;;5094598;28;19981;-77
2023/11/27 08:03:07;;;;;;;;;;;;;;;;;;5095823;28;19912;-77
2023/11/27 08:05:32;;;;;;;;;;;;;;;;;;5095821;28;19915;-77
2023/11/27 08:07:57;;;;;;;;;;;;;;;;;;5090942;28;20429;-77
2023/11/27 08:10:23;;;;;;;;;;;;;;;;;;5087382;28;19912;-77
2023/11/27 08:12:48;;;;;;;;;;;;;;;;;;5085913;28;19930;-77
2023/11/27 08:15:22;;;;;;;;;;;;;;;;;;5087671;28;19995;-77
2023/11/27 08:17:48;;;;;;;;;;;;;;;;;;5084699;28;19916;-77
2023/11/27 08:20:15;;;;;;;;;;;;;;;;;;5087332;28;19912;-77
2023/11/27 08:22:40;;;;;;;;;;;;;;;;;;5084842;28;19908;-77
2023/11/27 08:25:05;;;;;;;;;;;;;;;;;;5087652;28;20003;-77
2023/11/27 08:27:30;;;;;;;;;;;;;;;;;;5087410;28;19912;-77
2023/11/27 08:29:55;;;;;;;;;;;;;;;;;;5087599;28;20282;-77
2023/11/27 08:32:20;;;;;;;;;;;;;;;;;;5086496;28;19908;-77
2023/11/27 08:34:45;;;;;;;;;;;;;;;;;;5086255;28;19919;-77
2023/11/27 08:37:16;;;;;;;;;;;;;;;;;;5085569;28;19908;-77
2023/11/27 08:39:41;;;;;;;;;;;;;;;;;;5085986;28;19917;-77
2023/11/27 08:42:06;;;;;;;;;;;;;;;;;;5086304;28;20426;-77
2023/11/27 08:44:31;;;;;;;;;;;;;;;;;;5086565;28;19912;-77
2023/11/27 08:46:56;;;;;;;;;;;;;;;;;;5085020;28;19919;-77
2023/11/27 08:49:21;;;;;;;;;;;;;;;;;;5085325;28;19920;-77
2023/11/27 08:51:47;;;;;;;;;;;;;;;;;;5083926;28;20340;-77
2023/11/27 08:54:12;;;;;;;;;;;;;;;;;;5085057;28;19915;-77
2023/11/27 08:56:41;;;;;;;;;;;;;;;;;;5084488;28;19909;-76
2023/11/27 08:59:06;;;;;;;;;;;;;;;;;;5093586;28;19916;-77
2023/11/27 09:01:31;;;;;;;;;;;;;;;;;;5094586;28;19915;-77
2023/11/27 09:03:57;;;;;;;;;;;;;;;;;;5093599;28;19923;-77
2023/11/27 09:06:23;;;;;;;;;;;;;;;;;;5094532;28;20033;-77
2023/11/27 09:08:48;;;;;;;;;;;;;;;;;;5093595;28;19912;-77
2023/11/27 09:11:13;;;;;;;;;;;;;;;;;;5094482;28;19930;-77
2023/11/27 09:13:38;;;;;;;;;;;;;;;;;;5094490;28;19912;-77
2023/11/27 09:16:03;;;;;;;;;;;;;;;;;;5095002;28;19908;-77
2023/11/27 09:18:29;;;;;;;;;;;;;;;;;;5094364;28;19912;-77
2023/11/27 09:20:54;;;;;;;;;;;;;;;;;;5093194;28;19912;-76
2023/11/27 09:23:19;;;;;;;;;;;;;;;;;;5094125;28;19915;-77
2023/11/27 09:25:44;;;;;;;;;;;;;;;;;;5093499;28;19961;-77
2023/11/27 09:28:09;;;;;;;;;;;;;;;;;;5094212;28;19961;-77
2023/11/27 09:30:35;;;;;;;;;;;;;;;;;;5094517;28;19953;-77
2023/11/27 09:33:00;;;;;;;;;;;;;;;;;;5092855;28;19908;-77
2023/11/27 09:35:25;;;;;;;;;;;;;;;;;;5094260;28;19915;-77
2023/11/27 09:37:50;;;;;;;;;;;;;;;;;;5093125;28;19908;-77
2023/11/27 09:40:16;;;;;;;;;;;;;;;;;;5094391;28;19912;-77
2023/11/27 09:42:41;;;;;;;;;;;;;;;;;;5094263;28;19909;-77
2023/11/27 09:45:12;;;;;;;;;;;;;;;;;;5094583;28;19909;-77
2023/11/27 09:47:37;;;;;;;;;;;;;;;;;;5094594;28;19914;-77
2023/11/27 09:50:02;;;;;;;;;;;;;;;;;;5094460;28;19908;-77
2023/11/27 09:52:30;;;;;;;;;;;;;;;;;;5093232;28;20292;-77
2023/11/27 09:54:55;;;;;;;;;;;;;;;;;;5095286;28;19931;-77
2023/11/27 09:57:20;;;;;;;;;;;;;;;;;;5091423;28;19912;-78
2023/11/27 09:59:45;;;;;;;;;;;;;;;;;;5097618;28;19916;-77
2023/11/27 10:02:10;;;;;;;;;;;;;;;;;;5089482;28;19958;-77
2023/11/27 10:04:36;;;;;;;;;;;;;;;;;;5092419;28;20002;-78
2023/11/27 10:07:01;;;;;;;;;;;;;;;;;;5094809;28;19912;-77
2023/11/27 10:09:26;;;;;;;;;;;;;;;;;;5091982;28;20067;-77
2023/11/27 10:11:51;;;;;;;;;;;;;;;;;;5093817;28;20002;-77
2023/11/27 10:14:16;;;;;;;;;;;;;;;;;;5094376;28;19908;-77
2023/11/27 10:16:41;;;;;;;;;;;;;;;;;;5093560;28;19915;-77
2023/11/27 10:19:06;;;;;;;;;;;;;;;;;;5093323;28;19914;-77
2023/11/27 10:21:31;;;;;;;;;;;;;;;;;;5093654;28;19922;-77
2023/11/27 10:23:58;;;;;;;;;;;;;;;;;;5093340;28;19908;-77
2023/11/27 10:26:23;;;;;;;;;;;;;;;;;;5091827;28;19948;-77
2023/11/27 10:28:50;;;;;;;;;;;;;;;;;;5094364;28;19915;-77
2023/11/27 10:31:15;;;;;;;;;;;;;;;;;;5086060;28;19908;-77
2023/11/27 10:33:40;;;;;;;;;;;;;;;;;;5093426;28;19909;-82
2023/11/27 10:36:05;;;;;;;;;;;;;;;;;;5093224;28;19919;-77
2023/11/27 10:38:30;;;;;;;;;;;;;;;;;;5093015;28;19915;-77
2023/11/27 10:40:55;;;;;;;;;;;;;;;;;;5092786;28;19912;-77
2023/11/27 10:43:21;;;;;;;;;;;;;;;;;;5092725;28;20329;-77
2023/11/27 10:45:46;;;;;;;;;;;;;;;;;;5091596;28;19919;-77
2023/11/27 10:48:12;;;;;;;;;;;;;;;;;;5092480;28;19999;-77
2023/11/27 10:50:37;;;;;;;;;;;;;;;;;;5092935;28;19955;-77
2023/11/27 10:53:04;;;;;;;;;;;;;;;;;;5093195;28;19908;-77
2023/11/27 10:55:29;;;;;;;;;;;;;;;;;;5087020;28;19916;-78
2023/11/27 10:57:54;;;;;;;;;;;;;;;;;;5094756;28;20166;-78
2023/11/27 11:00:29;;;;;;;;;;;;;;;;;;5092289;28;19916;-78
2023/11/27 11:02:54;;;;;;;;;;;;;;;;;;5093121;28;20392;-77
2023/11/27 11:05:21;;;;;;;;;;;;;;;;;;5094736;28;19936;-77
2023/11/27 11:07:47;;;;;;;;;;;;;;;;;;5096175;28;19908;-79
2023/11/27 11:10:12;;;;;;;;;;;;;;;;;;5094232;28;20288;-77
2023/11/27 11:12:37;;;;;;;;;;;;;;;;;;5095516;28;19909;-77
2023/11/27 11:15:02;;;;;;;;;;;;;;;;;;5092668;28;19920;-77
2023/11/27 11:17:29;;;;;;;;;;;;;;;;;;5097718;28;19962;-79
2023/11/27 11:19:54;;;;;;;;;;;;;;;;;;5094764;28;19912;-77
2023/11/27 11:22:19;;;;;;;;;;;;;;;;;;5096584;28;19908;-78
2023/11/27 11:24:46;;;;;;;;;;;;;;;;;;5093637;28;20300;-78
2023/11/27 11:27:13;;;;;;;;;;;;;;;;;;5089138;28;19912;-77
2023/11/27 11:29:44;;;;;;;;;;;;;;;;;;5093823;28;19908;-78
2023/11/27 11:32:09;;;;;;;;;;;;;;;;;;5100494;28;19908;-78
2023/11/27 11:34:34;;;;;;;;;;;;;;;;;;5099091;28;19908;-78
2023/11/27 11:37:00;;;;;;;;;;;;;;;;;;5099248;28;19908;-78
2023/11/27 11:39:25;;;;;;;;;;;;;;;;;;5096988;28;20295;-78
2023/11/27 11:41:52;;;;;;;;;;;;;;;;;;5088721;28;19912;-77
2023/11/27 11:44:17;;;;;;;;;;;;;;;;;;5087121;28;19934;-78
2023/11/27 11:46:42;;;;;;;;;;;;;;;;;;5093514;28;19913;-77
2023/11/27 11:49:07;;;;;;;;;;;;;;;;;;5098753;28;20057;-77
2023/11/27 11:51:32;;;;;;;;;;;;;;;;;;5101655;28;19912;-81
2023/11/27 11:53:57;;;;;;;;;;;;;;;;;;5096521;28;19913;-80
2023/11/27 11:56:23;;;;;;;;;;;;;;;;;;5104034;28;19908;-81
2023/11/27 11:58:48;;;;;;;;;;;;;;;;;;5103695;28;19923;-80
2023/11/27 12:01:14;;;;;;;;;;;;;;;;;;5094759;28;19916;-81
2023/11/27 12:03:39;;;;;;;;;;;;;;;;;;5100751;28;19912;-81
2023/11/27 12:06:13;;;;;;;;;;;;;;;;;;5103110;28;19915;-82
2023/11/27 12:08:38;;;;;;;;;;;;;;;;;;5086840;28;19908;-85
2023/11/27 12:11:03;;;;;;;;;;;;;;;;;;5081716;28;20289;-85
2023/11/27 12:13:34;;;;;;;;;;;;;;;;;;5083817;28;20010;-86
2023/11/27 12:16:07;;;;;;;;;;;;;;;;;;5088716;28;19909;-85
2023/11/27 12:18:32;;;;;;;;;;;;;;;;;;5083621;28;19991;-84
2023/11/27 12:21:04;;;;;;;;;;;;;;;;;;5090580;28;19959;-85
2023/11/27 12:23:30;;;;;;;;;;;;;;;;;;5093154;28;19912;-85
2023/11/27 12:25:55;;;;;;;;;;;;;;;;;;5093655;28;19999;-83
2023/11/27 12:28:20;;;;;;;;;;;;;;;;;;5095476;28;19908;-83
2023/11/27 12:30:47;;;;;;;;;;;;;;;;;;5091767;28;20393;-78
2023/11/27 12:33:15;;;;;;;;;;;;;;;;;;5094314;28;19908;-78
2023/11/27 12:35:40;;;;;;;;;;;;;;;;;;5099059;28;20087;-79
2023/11/27 12:38:05;;;;;;;;;;;;;;;;;;5097099;28;19920;-79
2023/11/27 12:40:33;;;;;;;;;;;;;;;;;;5097981;28;19947;-78
2023/11/27 12:42:59;;;;;;;;;;;;;;;;;;5097565;28;20408;-79
2023/11/27 12:45:27;;;;;;;;;;;;;;;;;;5095317;28;19997;-76
2023/11/27 12:47:53;;;;;;;;;;;;;;;;;;5094785;28;19961;-76
2023/11/27 12:50:25;;;;;;;;;;;;;;;;;;5093374;28;19915;-76
2023/11/27 12:52:50;;;;;;;;;;;;;;;;;;5088693;28;20389;-77
2023/11/27 12:55:15;;;;;;;;;;;;;;;;;;5094380;28;19951;-76
2023/11/27 12:57:40;;;;;;;;;;;;;;;;;;5094312;28;19916;-76
2023/11/27 13:00:05;;;;;;;;;;;;;;;;;;5094319;28;19916;-76
2023/11/27 13:02:42;;;;;;;;;;;;;;;;;;5094319;28;19912;-76
2023/11/27 13:05:07;;;;;;;;;;;;;;;;;;5092816;28;20441;-76
2023/11/27 13:07:32;;;;;;;;;;;;;;;;;;5093928;28;20441;-76
2023/11/27 13:09:59;;;;;;;;;;;;;;;;;;5091441;28;19919;-76
2023/11/27 13:12:25;;;;;;;;;;;;;;;;;;5091810;28;20331;-76
2023/11/27 13:14:50;;;;;;;;;;;;;;;;;;5091110;28;20397;-76
2023/11/27 13:17:19;;;;;;;;;;;;;;;;;;5091283;28;19954;-76
2023/11/27 13:19:44;;;;;;;;;;;;;;;;;;5093834;28;19920;-76
2023/11/27 13:22:14;;;;;;;;;;;;;;;;;;5090633;28;19915;-76
2023/11/27 13:24:39;;;;;;;;;;;;;;;;;;5092484;28;19908;-77
2023/11/27 13:27:05;;;;;;;;;;;;;;;;;;5093528;28;19999;-76
2023/11/27 13:29:30;;;;;;;;;;;;;;;;;;5093530;28;19943;-76
2023/11/27 13:32:00;;;;;;;;;;;;;;;;;;5093368;28;19908;-76
2023/11/27 13:34:36;;;;;;;;;;;;;;;;;;5093446;28;20357;-76
2023/11/27 13:37:07;;;;;;;;;;;;;;;;;;5093376;28;19953;-76
2023/11/27 13:39:36;;;;;;;;;;;;;;;;;;5091351;28;19959;-76
2023/11/27 13:42:04;;;;;;;;;;;;;;;;;;5093616;28;20391;-76
2023/11/27 13:44:30;;;;;;;;;;;;;;;;;;5091452;28;19961;-76
2023/11/27 13:46:55;;;;;;;;;;;;;;;;;;5093469;28;19909;-76
2023/11/27 13:49:25;;;;;;;;;;;;;;;;;;5092289;28;19915;-76
2023/11/27 13:51:51;;;;;;;;;;;;;;;;;;5093120;28;20373;-76
2023/11/27 13:54:16;;;;;;;;;;;;;;;;;;5093339;28;20284;-76
2023/11/27 13:56:41;;;;;;;;;;;;;;;;;;5093358;28;20306;-76
2023/11/27 13:59:08;;;;;;;;;;;;;;;;;;5092073;28;19920;-76
2023/11/27 14:01:34;;;;;;;;;;;;;;;;;;5091937;28;19916;-76
2023/11/27 14:06:45;;;;;;;;;;;;;;;;;;5092618;28;19915;-76
2023/11/27 14:09:45;;;;;;;;;;;;;;;;;;5093149;28;19915;-76
2023/11/27 14:11:56;;;;;;;;;;;;;;;;;;5095705;28;19949;-79
2023/11/27 14:14:26;;;;;;;;;;;;;;;;;;5094543;28;20399;-76
2023/11/27 14:17:03;;;;;;;;;;;;;;;;;;5092836;28;19916;-77
2023/11/27 14:25:21;;;;;;;;;;;;;;;;;;5092719;28;19990;-77
2023/11/27 14:27:57;;;;;;;;;;;;;;;;;;5092483;28;19915;-77
2023/11/27 14:30:23;;;;;;;;;;;;;;;;;;5089304;28;19908;-77
2023/11/27 14:32:48;;;;;;;;;;;;;;;;;;5085091;28;19998;-77
2023/11/27 14:35:15;;;;;;;;;;;;;;;;;;5090828;28;20365;-76
2023/11/27 14:37:40;;;;;;;;;;;;;;;;;;5092329;28;19913;-76
2023/11/27 14:40:19;;;;;;;;;;;;;;;;;;5092293;28;19918;-76
2023/11/27 14:42:45;;;;;;;;;;;;;;;;;;5092696;28;19943;-76
2023/11/27 14:45:10;;;;;;;;;;;;;;;;;;5092221;28;19955;-76
2023/11/27 14:47:35;;;;;;;;;;;;;;;;;;5092849;28;19915;-76
2023/11/27 14:50:03;;;;;;;;;;;;;;;;;;5092092;28;19908;-76
2023/11/27 14:52:28;;;;;;;;;;;;;;;;;;5091538;28;20193;-77
2023/11/27 14:54:53;;;;;;;;;;;;;;;;;;5092354;28;19996;-76
2023/11/27 14:57:18;;;;;;;;;;;;;;;;;;5091940;28;20328;-76
2023/11/27 14:59:49;;;;;;;;;;;;;;;;;;5090781;28;19923;-76
2023/11/27 15:02:20;;;;;;;;;;;;;;;;;;5091316;28;20531;-76
2023/11/27 15:04:45;;;;;;;;;;;;;;;;;;5090017;28;19912;-77
2023/11/27 15:07:10;;;;;;;;;;;;;;;;;;5091759;28;19915;-77
2023/11/27 15:09:36;;;;;;;;;;;;;;;;;;5090744;28;19999;-77
2023/11/27 15:12:04;;;;;;;;;;;;;;;;;;5083805;28;20280;-76
2023/11/27 15:14:29;;;;;;;;;;;;;;;;;;5090753;28;19969;-76
2023/11/27 15:16:54;;;;;;;;;;;;;;;;;;5092349;28;19911;-77
2023/11/27 15:19:20;;;;;;;;;;;;;;;;;;5091086;28;19938;-77
2023/11/27 15:21:46;;;;;;;;;;;;;;;;;;5092452;28;19908;-77
2023/11/27 15:24:11;;;;;;;;;;;;;;;;;;5090765;28;19908;-78
2023/11/27 15:26:37;;;;;;;;;;;;;;;;;;5087522;28;19909;-78
2023/11/27 15:29:02;;;;;;;;;;;;;;;;;;5091943;28;19908;-78
2023/11/27 15:31:31;;;;;;;;;;;;;;;;;;5090091;28;19915;-78
2023/11/27 15:33:56;;;;;;;;;;;;;;;;;;5090551;28;19914;-78
2023/11/27 15:36:21;;;;;;;;;;;;;;;;;;5090660;28;19999;-74
2023/11/27 15:38:46;;;;;;;;;;;;;;;;;;5091887;28;19908;-76
2023/11/27 15:41:11;;;;;;;;;;;;;;;;;;5091654;28;19916;-74
2023/11/27 15:43:38;;;;;;;;;;;;;;;;;;5091916;28;19953;-74
2023/11/27 15:46:04;;;;;;;;;;;;;;;;;;5091651;28;19922;-74
2023/11/27 15:48:29;;;;;;;;;;;;;;;;;;5091645;28;20010;-74
2023/11/27 15:50:55;;;;;;;;;;;;;;;;;;5090188;28;20345;-74
2023/11/27 15:53:21;;;;;;;;;;;;;;;;;;5091681;28;19908;-74
2023/11/27 15:55:46;;;;;;;;;;;;;;;;;;5091620;28;19908;-74
2023/11/27 15:58:11;;;;;;;;;;;;;;;;;;5091499;28;19908;-74
2023/11/27 16:00:37;;;;;;;;;;;;;;;;;;5091265;28;19951;-74
2023/11/27 16:03:02;;;;;;;;;;;;;;;;;;5084347;28;19908;-74
2023/11/27 16:05:28;;;;;;;;;;;;;;;;;;5095368;28;20293;-74
2023/11/27 16:07:55;;;;;;;;;;;;;;;;;;5095492;28;19922;-73
2023/11/27 16:10:21;;;;;;;;;;;;;;;;;;5095233;28;19942;-73
2023/11/27 16:12:46;;;;;;;;;;;;;;;;;;5095463;28;20292;-74
2023/11/27 16:15:12;;;;;;;;;;;;;;;;;;5095154;28;19914;-73
2023/11/27 16:17:42;;;;;;;;;;;;;;;;;;5090317;28;19916;-75
2023/11/27 16:20:11;;;;;;;;;;;;;;;;;;5091168;28;19920;-73
2023/11/27 16:22:36;;;;;;;;;;;;;;;;;;5091114;28;19909;-74
2023/11/27 16:25:01;;;;;;;;;;;;;;;;;;5094031;28;19927;-73
2023/11/27 16:27:28;;;;;;;;;;;;;;;;;;5095094;28;19953;-73
2023/11/27 16:29:53;;;;;;;;;;;;;;;;;;5093785;28;20443;-73
2023/11/27 16:32:18;;;;;;;;;;;;;;;;;;5093139;28;19908;-73
2023/11/27 16:34:46;;;;;;;;;;;;;;;;;;5095149;28;19935;-73
2023/11/27 16:37:13;;;;;;;;;;;;;;;;;;5094527;28;19908;-73
2023/11/27 16:39:38;;;;;;;;;;;;;;;;;;5094864;28;19923;-73
2023/11/27 16:42:05;;;;;;;;;;;;;;;;;;5094873;28;19909;-73
2023/11/27 16:44:30;;;;;;;;;;;;;;;;;;5094565;28;19916;-73